createdAt,value
2022-08-30T00:01:24.983Z,4.40
2022-08-30T00:11:55.094Z,3.90
2022-08-30T00:14:30.552Z,3.60
2022-08-30T00:17:06.665Z,3.97
2022-08-30T00:19:41.762Z,4.47
2022-08-30T00:22:25.714Z,4.47
2022-08-30T00:24:56.594Z,4.22
2022-08-30T00:27:28.968Z,4.40
2022-08-30T00:34:05.366Z,4.78
2022-08-30T00:36:35.574Z,4.07
2022-08-30T00:39:06.592Z,4.80
2022-08-30T00:41:39.522Z,4.70
2022-08-30T00:44:12.642Z,4.80
2022-08-30T00:51:02.131Z,4.35
2022-08-30T00:53:35.648Z,4.55
2022-08-30T01:00:11.808Z,4.40
2022-08-30T01:02:42.488Z,5.47
2022-08-30T01:05:16.086Z,5.53
2022-08-30T01:07:47.072Z,5.10
2022-08-30T01:10:19.408Z,4.50
2022-08-30T01:16:58.045Z,5.00
2022-08-30T01:19:38.180Z,4.68
2022-08-30T01:22:26.512Z,4.80
2022-08-30T01:24:59.855Z,5.05
2022-08-30T01:27:30.538Z,5.10
2022-08-30T01:30:02.715Z,5.13
2022-08-30T01:32:33.518Z,4.03
2022-08-30T01:39:48.128Z,5.07
2022-08-30T01:43:23.587Z,4.70
2022-08-30T01:54:27.630Z,5.72
2022-08-30T01:57:05.950Z,5.40
2022-08-30T01:59:35.035Z,6.10
2022-08-30T02:10:36.054Z,6.00
2022-08-30T02:13:05.122Z,11.50
2022-08-30T02:15:41.861Z,12.13
2022-08-30T02:18:12.092Z,12.15
2022-08-30T02:20:41.479Z,10.63
2022-08-30T02:27:54.620Z,8.65
2022-08-30T02:30:24.147Z,8.05
2022-08-30T02:46:31.096Z,5.10
2022-08-30T02:58:56.808Z,4.50
2022-08-30T03:01:29.940Z,4.97
2022-08-30T03:04:33.060Z,4.97
2022-08-30T03:07:02.149Z,5.05
2022-08-30T03:09:32.784Z,4.95
2022-08-30T03:12:42.777Z,4.68
2022-08-30T03:19:46.306Z,4.05
2022-08-30T03:23:40.153Z,4.00
2022-08-30T03:26:09.458Z,4.32
2022-08-30T03:32:17.654Z,4.07
2022-08-30T03:47:20.489Z,4.95
2022-08-30T03:49:49.755Z,4.43
2022-08-30T04:05:30.651Z,4.80
2022-08-30T04:08:36.218Z,4.15
2022-08-30T04:14:56.816Z,4.90
2022-08-30T04:19:54.488Z,5.10
2022-08-30T04:23:30.864Z,4.95
2022-08-30T04:26:01.285Z,5.43
2022-08-30T04:28:30.763Z,5.20
2022-08-30T04:30:59.680Z,5.25
2022-08-30T04:33:28.722Z,5.20
2022-08-30T04:36:04.721Z,5.20
2022-08-30T04:38:34.597Z,5.03
2022-08-30T04:41:15.693Z,4.90
2022-08-30T04:44:27.999Z,4.85
2022-08-30T04:46:59.207Z,4.53
2022-08-30T04:49:28.270Z,4.95
2022-08-30T04:51:57.158Z,5.47
2022-08-30T04:55:30.941Z,5.57
2022-08-30T04:58:01.243Z,4.78
2022-08-30T05:00:30.217Z,5.30
2022-08-30T05:04:03.425Z,5.10
2022-08-30T05:06:32.783Z,4.80
2022-08-30T05:09:01.923Z,5.10
2022-08-30T05:16:18.158Z,3.85
2022-08-30T05:18:49.197Z,4.20
2022-08-30T05:21:19.659Z,4.10
2022-08-30T05:24:45.884Z,3.70
2022-08-30T05:27:15.179Z,3.95
2022-08-30T05:32:44.729Z,4.13
2022-08-30T05:35:15.636Z,4.25
2022-08-30T05:37:44.933Z,3.60
2022-08-30T05:43:41.010Z,3.60
2022-08-30T05:46:12.299Z,3.75
2022-08-30T05:48:43.125Z,3.88
2022-08-30T05:51:14.900Z,4.10
2022-08-30T05:54:13.240Z,3.80
2022-08-30T05:56:43.105Z,3.30
2022-08-30T06:04:00.354Z,3.85
2022-08-30T06:06:33.474Z,3.90
2022-08-30T06:09:05.204Z,3.55
2022-08-30T06:11:35.758Z,3.53
2022-08-30T06:14:12.128Z,3.50
2022-08-30T06:16:43.693Z,3.50
2022-08-30T06:19:15.462Z,3.78
2022-08-30T06:22:13.102Z,3.70
2022-08-30T06:24:57.012Z,3.67
2022-08-30T06:27:26.557Z,3.50
2022-08-30T06:29:55.551Z,3.45
2022-08-30T06:32:24.900Z,3.40
2022-08-30T08:59:27.574Z,2.33
2022-08-30T09:01:59.583Z,1.90
2022-08-30T09:04:35.215Z,1.98
2022-08-30T09:07:06.875Z,2.05
2022-08-30T09:09:38.989Z,1.92
2022-08-30T09:12:09.322Z,1.63
2022-08-30T09:17:31.221Z,1.77
2022-08-30T09:20:01.458Z,1.23
2022-08-30T09:22:35.792Z,1.58
2022-08-30T09:25:11.112Z,1.63
2022-08-30T09:27:42.406Z,1.30
2022-08-30T09:30:18.437Z,1.58
2022-08-30T09:32:54.283Z,1.20
2022-08-30T09:35:25.896Z,1.10
2022-08-30T09:37:58.025Z,1.40
2022-08-30T09:40:36.182Z,1.20
2022-08-30T09:43:10.185Z,1.43
2022-08-30T09:45:44.703Z,1.27
2022-08-30T09:48:28.684Z,1.13
2022-08-30T09:51:23.161Z,1.10
2022-08-30T09:54:17.431Z,1.20
2022-08-30T09:56:56.025Z,1.10
2022-08-30T09:59:39.688Z,1.02
2022-08-30T10:02:28.362Z,1.17
2022-08-30T10:05:05.890Z,1.00
2022-08-30T10:07:42.091Z,1.20
2022-08-30T10:10:17.789Z,1.55
2022-08-30T10:12:56.785Z,1.33
2022-08-30T10:15:30.422Z,1.20
2022-08-30T10:18:07.774Z,1.20
2022-08-30T10:20:45.295Z,1.02
2022-08-30T10:23:18.283Z,0.90
2022-08-30T10:25:52.030Z,1.23
2022-08-30T10:28:28.904Z,1.02
2022-08-30T10:31:00.882Z,1.48
2022-08-30T10:33:37.126Z,1.13
2022-08-30T10:36:10.695Z,1.05
2022-08-30T10:38:42.348Z,1.10
2022-08-30T10:41:21.412Z,1.20
2022-08-30T10:43:56.527Z,1.27
2022-08-30T10:46:32.306Z,1.15
2022-08-30T10:49:04.370Z,1.30
2022-08-30T10:51:43.211Z,1.05
2022-08-30T10:54:18.731Z,0.80
2022-08-30T10:56:51.491Z,1.00
2022-08-30T10:59:21.659Z,1.20
2022-08-30T11:02:18.681Z,0.82
2022-08-30T11:05:08.186Z,1.00
2022-08-30T11:07:44.473Z,1.10
2022-08-30T11:10:27.992Z,1.00
2022-08-30T11:13:02.601Z,0.65
2022-08-30T11:15:33.655Z,0.70
2022-08-30T11:18:07.244Z,0.82
2022-08-30T11:20:42.328Z,0.95
2022-08-30T11:23:33.029Z,0.93
2022-08-30T11:26:06.352Z,1.02
2022-08-30T11:29:02.141Z,0.70
2022-08-30T11:31:39.966Z,0.85
2022-08-30T11:34:10.255Z,1.10
2022-08-30T11:37:10.068Z,1.20
2022-08-30T11:40:01.996Z,0.90
2022-08-30T11:42:36.933Z,0.70
2022-08-30T11:45:54.915Z,1.10
2022-08-30T11:48:55.581Z,0.90
2022-08-30T11:52:26.419Z,0.88
2022-08-30T11:55:17.986Z,0.77
2022-08-30T11:57:54.129Z,0.88
2022-08-30T12:00:34.404Z,1.13
2022-08-30T12:03:07.305Z,1.05
2022-08-30T12:05:54.706Z,0.85
2022-08-30T12:08:59.530Z,0.70
2022-08-30T12:12:02.517Z,0.70
2022-08-30T12:14:52.169Z,0.80
2022-08-30T12:17:52.206Z,0.60
2022-08-30T12:20:27.551Z,0.80
2022-08-30T12:22:57.380Z,0.65
2022-08-30T12:25:31.069Z,0.70
2022-08-30T12:28:16.415Z,0.88
2022-08-30T12:30:46.458Z,1.50
2022-08-30T12:33:29.057Z,1.38
2022-08-30T12:35:59.764Z,0.88
2022-08-30T12:38:29.941Z,0.93
2022-08-30T12:41:02.810Z,0.80
2022-08-30T12:43:40.329Z,1.00
2022-08-30T12:46:15.135Z,0.90
2022-08-30T12:48:45.761Z,1.00
2022-08-30T12:51:30.183Z,1.00
2022-08-30T12:54:13.844Z,1.02
2022-08-30T12:56:56.449Z,1.25
2022-08-30T12:59:52.917Z,1.52
2022-08-30T13:02:25.233Z,1.00
2022-08-30T13:04:56.229Z,0.77
2022-08-30T13:07:32.549Z,1.00
2022-08-30T13:10:06.938Z,0.70
2022-08-30T13:12:38.560Z,0.90
2022-08-30T13:15:20.156Z,0.90
2022-08-30T13:17:49.025Z,1.05
2022-08-30T13:20:28.024Z,0.95
2022-08-30T13:23:06.328Z,1.17
2022-08-30T13:25:36.275Z,1.00
2022-08-30T13:28:08.878Z,1.05
2022-08-30T13:30:37.762Z,1.30
2022-08-30T13:33:06.437Z,1.13
2022-08-30T13:35:35.322Z,1.30
2022-08-30T13:38:04.979Z,0.98
2022-08-30T13:40:33.749Z,1.00
2022-08-30T13:43:03.001Z,1.20
2022-08-30T13:45:48.587Z,1.15
2022-08-30T13:48:17.814Z,1.02
2022-08-30T13:50:53.885Z,1.98
2022-08-30T13:56:14.211Z,1.05
2022-08-30T13:58:43.187Z,0.93
2022-08-30T14:01:16.622Z,1.00
2022-08-30T14:06:34.872Z,1.73
2022-08-30T14:09:04.925Z,1.00
2022-08-30T14:11:34.419Z,1.10
2022-08-30T14:14:39.063Z,1.10
2022-08-30T14:19:23.077Z,1.20
2022-08-30T14:21:51.773Z,0.98
2022-08-30T14:24:21.635Z,0.75
2022-08-30T14:26:52.900Z,0.90
2022-08-30T14:29:24.369Z,1.10
2022-08-30T14:31:54.232Z,1.00
2022-08-30T14:34:24.417Z,1.00
2022-08-30T14:36:53.152Z,0.90
2022-08-30T14:39:22.895Z,1.10
2022-08-30T14:41:53.562Z,1.30
2022-08-30T14:44:24.850Z,1.13
2022-08-30T14:46:54.225Z,1.30
2022-08-30T14:49:24.903Z,1.10
2022-08-30T14:51:55.623Z,1.10
2022-08-30T14:54:27.111Z,1.20
2022-08-30T14:56:56.639Z,1.10
2022-08-30T14:59:27.103Z,1.48
2022-08-30T15:01:56.325Z,1.55
2022-08-30T15:04:26.797Z,2.10
2022-08-30T15:06:56.025Z,2.13
2022-08-30T15:09:26.307Z,2.05
2022-08-30T15:11:58.780Z,1.80
2022-08-30T15:14:28.372Z,1.55
2022-08-30T15:19:29.059Z,1.55
2022-08-30T15:22:02.157Z,1.48
2022-08-30T15:24:31.990Z,1.25
2022-08-30T15:27:02.390Z,1.08
2022-08-30T15:29:31.990Z,1.10
2022-08-30T15:32:02.848Z,1.05
2022-08-30T15:34:33.756Z,1.00
2022-08-30T15:37:02.969Z,1.25
2022-08-30T15:39:32.533Z,1.10
2022-08-30T15:42:01.935Z,1.00
2022-08-30T15:44:31.794Z,1.40
2022-08-30T15:47:02.123Z,1.38
2022-08-30T15:49:32.712Z,1.30
2022-08-30T15:52:03.696Z,1.38
2022-08-30T15:54:33.281Z,1.10
2022-08-30T15:57:02.894Z,1.10
2022-08-30T15:59:35.046Z,1.23
2022-08-30T16:02:04.278Z,1.48
2022-08-30T16:04:36.597Z,1.30
2022-08-30T16:07:06.316Z,1.23
2022-08-30T16:09:38.449Z,1.80
2022-08-30T16:12:08.517Z,1.50
2022-08-30T16:14:42.262Z,1.30
2022-08-30T16:17:11.285Z,1.38
2022-08-30T16:19:41.514Z,1.63
2022-08-30T16:22:11.568Z,1.10
2022-08-30T16:24:40.938Z,1.40
2022-08-30T16:27:11.000Z,1.33
2022-08-30T16:29:41.049Z,1.40
2022-08-30T16:32:09.859Z,1.30
2022-08-30T16:34:38.944Z,1.02
2022-08-30T16:37:09.623Z,1.40
2022-08-30T16:39:38.716Z,1.10
2022-08-30T16:42:08.192Z,1.20
2022-08-30T16:44:37.244Z,1.10
2022-08-30T16:47:09.083Z,1.58
2022-08-30T16:49:41.947Z,1.25
2022-08-30T16:52:12.186Z,1.15
2022-08-30T16:54:41.222Z,1.15
2022-08-30T16:57:10.562Z,1.30
2022-08-30T17:02:08.703Z,1.27
2022-08-30T17:04:41.942Z,1.42
2022-08-30T17:07:15.808Z,1.95
2022-08-30T17:09:47.504Z,1.58
2022-08-30T17:12:17.169Z,1.27
2022-08-30T17:14:45.992Z,1.35
2022-08-30T17:17:16.834Z,1.05
2022-08-30T17:19:50.967Z,1.30
2022-08-30T17:22:21.785Z,1.00
2022-08-30T17:24:52.429Z,0.80
2022-08-30T17:27:21.905Z,0.95
2022-08-30T17:29:51.157Z,1.50
2022-08-30T17:34:49.484Z,0.80
2022-08-30T17:37:20.558Z,1.50
2022-08-30T17:39:51.757Z,0.98
2022-08-30T17:42:20.567Z,1.27
2022-08-30T17:44:51.320Z,1.30
2022-08-30T17:47:20.293Z,1.58
2022-08-30T17:49:49.203Z,1.13
2022-08-30T17:52:18.052Z,1.02
2022-08-30T17:54:46.984Z,1.08
2022-08-30T17:57:17.545Z,0.95
2022-08-30T17:59:46.717Z,1.08
2022-08-30T18:02:21.468Z,1.00
2022-08-30T18:04:53.575Z,1.00
2022-08-30T18:07:22.507Z,0.88
2022-08-30T18:09:53.408Z,0.88
2022-08-30T18:12:24.232Z,1.15
2022-08-30T18:14:55.771Z,1.40
2022-08-30T18:17:24.656Z,1.08
2022-08-30T18:19:53.832Z,1.10
2022-08-30T18:22:22.727Z,0.98
2022-08-30T18:24:53.526Z,0.98
2022-08-30T18:27:23.755Z,1.00
2022-08-30T18:29:52.862Z,0.95
2022-08-30T18:32:21.752Z,1.10
2022-08-30T18:35:01.617Z,1.23
2022-08-30T18:37:32.258Z,1.00
2022-08-30T18:40:01.635Z,0.88
2022-08-30T18:42:33.229Z,1.30
2022-08-30T18:45:11.581Z,1.02
2022-08-30T18:47:44.300Z,1.15
2022-08-30T18:50:13.168Z,0.90
2022-08-30T18:52:41.961Z,1.40
2022-08-30T18:55:14.042Z,0.95
2022-08-30T18:57:44.891Z,0.85
2022-08-30T19:00:17.367Z,1.00
2022-08-30T19:02:47.163Z,0.90
2022-08-30T19:05:17.295Z,0.90
2022-08-30T19:07:47.464Z,1.20
2022-08-30T19:10:20.944Z,1.02
2022-08-30T19:12:51.533Z,0.90
2022-08-30T19:15:20.629Z,1.10
2022-08-30T19:17:50.048Z,1.30
2022-08-30T19:20:22.669Z,1.15
2022-08-30T19:23:09.578Z,0.80
2022-08-30T19:25:40.725Z,0.80
2022-08-30T19:28:11.794Z,1.20
2022-08-30T19:30:41.249Z,1.00
2022-08-30T19:33:12.594Z,0.90
2022-08-30T19:35:41.625Z,1.00
2022-08-30T19:40:39.677Z,0.98
2022-08-30T19:43:08.874Z,0.90
2022-08-30T19:45:39.672Z,0.80
2022-08-30T19:48:08.971Z,1.13
2022-08-30T19:50:39.944Z,0.93
2022-08-30T19:53:09.627Z,1.20
2022-08-30T19:55:40.683Z,0.98
2022-08-30T19:58:10.659Z,1.20
2022-08-30T20:00:52.914Z,1.40
2022-08-30T20:03:23.235Z,1.00
2022-08-30T20:08:22.016Z,0.70
2022-08-30T20:10:51.058Z,1.02
2022-08-30T20:13:23.709Z,1.15
2022-08-30T20:15:59.389Z,0.82
2022-08-30T20:18:29.603Z,0.90
2022-08-30T20:20:58.851Z,0.85
2022-08-30T20:23:28.634Z,1.00
2022-08-30T20:25:59.176Z,0.82
2022-08-30T20:28:28.763Z,0.85
2022-08-30T20:30:59.506Z,0.80
2022-08-30T20:33:29.154Z,0.60
2022-08-30T20:36:01.856Z,0.73
2022-08-30T20:38:30.854Z,0.98
2022-08-30T20:41:01.314Z,0.70
2022-08-30T20:43:32.232Z,0.82
2022-08-30T20:46:08.918Z,0.70
2022-08-30T20:48:38.810Z,0.60
2022-08-30T20:51:10.974Z,0.68
2022-08-30T20:53:40.708Z,0.70
2022-08-30T20:56:13.218Z,0.68
2022-08-30T20:58:42.495Z,0.90
2022-08-30T21:01:14.190Z,0.60
2022-08-30T21:03:45.615Z,0.65
2022-08-30T21:06:15.390Z,1.25
2022-08-30T21:08:44.857Z,0.55
2022-08-30T21:11:13.700Z,0.55
2022-08-30T21:13:42.817Z,0.65
2022-08-30T21:16:13.376Z,0.70
2022-08-30T21:18:42.230Z,0.40
2022-08-30T21:21:12.086Z,0.60
2022-08-30T21:23:40.968Z,0.68
2022-08-30T21:26:10.388Z,0.70
2022-08-30T21:31:09.203Z,0.65
2022-08-30T21:33:39.651Z,0.70
2022-08-30T21:36:27.158Z,0.60
2022-08-30T21:39:00.984Z,0.77
2022-08-30T21:41:30.654Z,0.50
2022-08-30T21:44:00.813Z,0.70
2022-08-30T21:46:32.516Z,0.90
2022-08-30T21:49:05.801Z,0.40
2022-08-30T21:51:37.247Z,0.60
2022-08-30T21:54:09.764Z,0.57
2022-08-30T21:56:40.071Z,0.80
2022-08-30T21:59:09.658Z,0.50
2022-08-30T22:01:41.002Z,0.90
2022-08-30T22:04:13.608Z,0.68
2022-08-30T22:06:48.314Z,0.68
2022-08-30T22:09:18.636Z,0.68
2022-08-30T22:11:48.193Z,0.60
2022-08-30T22:14:19.781Z,0.60
2022-08-30T22:16:48.627Z,0.80
2022-08-30T22:19:23.120Z,0.60
2022-08-30T22:21:53.896Z,0.50
2022-08-30T22:24:32.784Z,0.70
2022-08-30T22:27:03.118Z,0.70
2022-08-30T22:29:32.239Z,0.90
2022-08-30T22:32:01.805Z,0.60
2022-08-30T22:34:32.565Z,0.70
2022-08-30T22:37:01.795Z,0.73
2022-08-30T22:39:30.880Z,0.70
2022-08-30T22:41:59.763Z,0.60
2022-08-30T22:44:28.624Z,0.75
2022-08-30T22:46:57.404Z,0.70
2022-08-30T22:49:26.473Z,0.98
2022-08-30T22:51:56.725Z,0.80
2022-08-30T22:54:25.639Z,0.73
2022-08-30T22:56:54.687Z,0.57
2022-08-30T22:59:31.308Z,0.63
2022-08-30T23:02:01.451Z,0.60
2022-08-30T23:07:00.723Z,0.80
2022-08-30T23:09:29.655Z,0.60
2022-08-30T23:11:58.960Z,0.85
2022-08-30T23:16:56.331Z,0.70
2022-08-30T23:19:26.843Z,0.70
2022-08-30T23:21:55.811Z,0.50
2022-08-30T23:24:48.830Z,0.60
2022-08-30T23:27:35.660Z,0.70
2022-08-30T23:30:22.937Z,0.60
2022-08-30T23:33:09.066Z,0.85
2022-08-30T23:35:56.078Z,0.90
2022-08-30T23:38:42.657Z,0.70
2022-08-30T23:41:33.969Z,0.70
2022-08-30T23:44:20.883Z,0.77
2022-08-30T23:47:06.959Z,0.70
2022-08-30T23:49:53.730Z,0.50
2022-08-30T23:52:40.196Z,0.60
2022-08-30T23:55:27.087Z,0.70
2022-08-30T23:58:14.838Z,0.60
